Salzburg Airport LOWS

Flugplatz Daten

Name: Salzburg Airport

Ident: LOWS

Lat: 47,79330063

Long: 13,00430012

Platzhöhe: 1411 ft

IataCode: SZG

City: Salzburg

Metar

2021/08/02 07:20
LOWS 020720Z 14004KT 120V180 9999 FEW040 SCT044 BKN090 16/13 Q1017 NOSIG

Taf

2021/08/02 06:22
TAF LOWS 020515Z 0206/0306 15006KT 9999 FEW040 BKN050 TX20/0213Z TN12/0304Z
BECMG 0210/0212 33007KT PROB30
TEMPO 0215/0220 SHRA FEW040 FEW040CB BKN080
BECMG 0218/0220 15007KT

Webcams

Hangar 7 Hangar Vorfeld Vorfeld Panorama Vorfeld 2
Gewünschte Webcam nicht vorhanden? Dann fügen Sie eine hinzu. Sie wird dann so schnell wie möglich freigeschaltet
Url: Title: